createdAt,value
2023-03-18T00:00:10.266Z,1.15
2023-03-18T00:05:02.140Z,1.10
2023-03-18T00:09:53.782Z,1.08
2023-03-18T00:14:45.377Z,2.85
2023-03-18T00:19:37.151Z,1.52
2023-03-18T00:24:29.180Z,1.90
2023-03-18T00:29:20.821Z,1.00
2023-03-18T00:34:14.870Z,1.15
2023-03-18T00:39:07.558Z,1.23
2023-03-18T00:43:59.696Z,1.13
2023-03-18T00:48:54.124Z,1.20
2023-03-18T00:53:48.848Z,1.40
2023-03-18T00:58:41.127Z,1.40
2023-03-18T01:03:34.071Z,1.20
2023-03-18T01:08:27.189Z,1.30
2023-03-18T01:13:19.318Z,0.98
2023-03-18T01:18:11.483Z,0.98
2023-03-18T01:23:03.175Z,1.17
2023-03-18T01:27:57.588Z,1.20
2023-03-18T01:32:50.421Z,1.23
2023-03-18T01:37:43.968Z,0.80
2023-03-18T01:42:37.856Z,1.73
2023-03-18T01:47:29.831Z,1.30
2023-03-18T01:52:29.019Z,1.58
2023-03-18T01:57:22.432Z,1.23
2023-03-18T02:02:23.243Z,1.50
2023-03-18T02:07:29.902Z,1.40
2023-03-18T02:12:26.995Z,1.48
2023-03-18T02:17:24.366Z,1.30
2023-03-18T02:22:24.297Z,1.20
2023-03-18T02:27:35.563Z,1.63
2023-03-18T02:32:30.583Z,1.58
2023-03-18T02:37:22.733Z,1.20
2023-03-18T02:42:15.625Z,1.23
2023-03-18T02:47:12.375Z,1.10
2023-03-18T02:52:05.636Z,1.10
2023-03-18T02:56:59.598Z,1.33
2023-03-18T03:01:53.241Z,1.05
2023-03-18T03:06:45.650Z,1.55
2023-03-18T03:11:37.788Z,1.75
2023-03-18T03:16:29.761Z,1.38
2023-03-18T03:21:22.431Z,1.55
2023-03-18T03:26:16.275Z,1.45
2023-03-18T03:31:09.125Z,1.58
2023-03-18T03:36:00.968Z,1.85
2023-03-18T03:40:54.014Z,1.40
2023-03-18T03:45:46.123Z,1.95
2023-03-18T03:50:39.870Z,2.25
2023-03-18T03:55:32.117Z,1.65
2023-03-18T04:00:24.272Z,1.25
2023-03-18T04:05:20.429Z,1.45
2023-03-18T04:10:16.654Z,1.52
2023-03-18T04:15:11.891Z,1.45
2023-03-18T04:20:05.497Z,1.77
2023-03-18T04:24:59.500Z,1.95
2023-03-18T04:29:53.521Z,1.92
2023-03-18T04:34:45.206Z,2.20
2023-03-18T04:39:37.021Z,1.27
2023-03-18T04:44:30.570Z,1.73
2023-03-18T04:49:22.238Z,1.05
2023-03-18T04:54:13.874Z,1.95
2023-03-18T04:59:06.259Z,1.60
2023-03-18T05:03:58.386Z,2.08
2023-03-18T05:08:51.349Z,0.95
2023-03-18T05:13:43.020Z,1.60
2023-03-18T05:18:34.956Z,1.25
2023-03-18T05:23:26.567Z,1.45
2023-03-18T05:28:18.395Z,2.10
2023-03-18T05:33:10.190Z,1.63
2023-03-18T05:38:02.034Z,2.13
2023-03-18T05:42:56.511Z,1.88
2023-03-18T05:47:48.290Z,2.33
2023-03-18T05:52:40.053Z,2.30
2023-03-18T05:57:32.767Z,1.98
2023-03-18T06:02:27.125Z,1.50
2023-03-18T06:07:18.734Z,1.88
2023-03-18T06:12:10.539Z,1.88
2023-03-18T06:17:02.297Z,2.08
2023-03-18T06:21:54.003Z,2.83
2023-03-18T06:26:45.757Z,2.13
2023-03-18T06:31:37.823Z,2.72
2023-03-18T06:36:30.841Z,2.53
2023-03-18T06:41:22.477Z,2.90
2023-03-18T06:46:14.885Z,2.83
2023-03-18T06:51:07.910Z,3.33
2023-03-18T06:56:00.421Z,3.75
2023-03-18T07:00:53.420Z,4.90
2023-03-18T07:05:45.492Z,4.72
2023-03-18T07:10:37.144Z,5.15
2023-03-18T07:15:28.877Z,3.55
2023-03-18T07:20:22.474Z,3.95
2023-03-18T07:25:14.704Z,4.60
2023-03-18T07:30:09.661Z,4.30
2023-03-18T07:35:03.037Z,4.55
2023-03-18T07:39:54.633Z,4.35
2023-03-18T07:44:46.314Z,4.88
2023-03-18T07:49:37.884Z,4.10
2023-03-18T07:54:29.503Z,3.63
2023-03-18T07:59:21.214Z,4.05
2023-03-18T08:04:12.913Z,3.65
2023-03-18T08:09:05.659Z,3.92
2023-03-18T08:13:57.238Z,4.13
2023-03-18T08:18:48.850Z,3.88
2023-03-18T08:23:41.434Z,3.58
2023-03-18T08:28:33.142Z,2.97
2023-03-18T08:33:27.175Z,2.00
2023-03-18T08:38:19.407Z,3.72
2023-03-18T08:43:11.325Z,3.03
2023-03-18T08:48:03.028Z,2.70
2023-03-18T08:52:59.992Z,1.80
2023-03-18T08:57:51.731Z,2.88
2023-03-18T09:02:43.359Z,1.60
2023-03-18T09:07:35.167Z,1.65
2023-03-18T09:12:26.793Z,1.48
2023-03-18T09:17:18.955Z,1.10
2023-03-18T09:22:11.433Z,1.08
2023-03-18T09:27:03.202Z,0.80
2023-03-18T09:31:55.761Z,0.80
2023-03-18T09:36:51.312Z,0.70
2023-03-18T09:42:01.702Z,1.10
2023-03-18T09:47:06.016Z,0.70
2023-03-18T09:52:07.318Z,0.77
2023-03-18T09:57:00.005Z,0.70
2023-03-18T10:01:56.396Z,1.08
2023-03-18T10:06:50.844Z,0.60
2023-03-18T10:11:42.860Z,0.50
2023-03-18T10:16:48.918Z,0.40
2023-03-18T10:21:48.080Z,0.35
2023-03-18T10:26:47.103Z,0.40
2023-03-18T10:31:47.859Z,0.77
2023-03-18T10:36:45.534Z,0.45
2023-03-18T10:41:38.644Z,0.40
2023-03-18T10:46:31.847Z,0.70
2023-03-18T10:51:34.639Z,0.70
2023-03-18T10:56:26.353Z,0.50
2023-03-18T11:01:22.965Z,0.70
2023-03-18T11:06:47.386Z,1.00
2023-03-18T11:12:05.433Z,0.60
2023-03-18T11:17:01.552Z,1.10
2023-03-18T11:22:25.959Z,0.70
2023-03-18T11:27:17.576Z,0.52
2023-03-18T11:32:23.676Z,0.70
2023-03-18T11:37:15.318Z,0.40
2023-03-18T11:42:22.224Z,0.40
2023-03-18T11:47:22.331Z,0.30
2023-03-18T11:52:32.738Z,0.38
2023-03-18T11:57:52.336Z,0.38
2023-03-18T12:03:15.536Z,0.40
2023-03-18T12:08:10.169Z,0.30
2023-03-18T12:13:26.278Z,0.30
2023-03-18T12:18:26.031Z,0.40
2023-03-18T12:23:36.029Z,0.30
2023-03-18T12:28:42.932Z,0.38
2023-03-18T12:33:49.627Z,0.50
2023-03-18T12:39:05.864Z,0.38
2023-03-18T12:44:06.904Z,0.50
2023-03-18T12:49:39.097Z,0.47
2023-03-18T12:54:36.784Z,0.50
2023-03-18T12:59:42.481Z,0.32
2023-03-18T13:04:37.591Z,0.32
2023-03-18T13:09:45.954Z,0.20
2023-03-18T13:14:48.953Z,0.30
2023-03-18T13:19:42.117Z,0.30
2023-03-18T13:24:54.148Z,0.30
2023-03-18T13:29:52.233Z,0.20
2023-03-18T13:35:02.152Z,0.20
2023-03-18T13:40:12.952Z,0.25
2023-03-18T13:45:16.873Z,0.30
2023-03-18T13:50:20.765Z,0.30
2023-03-18T13:55:44.588Z,0.30
2023-03-18T14:01:01.384Z,0.20
2023-03-18T14:06:15.993Z,0.10
2023-03-18T14:11:17.054Z,0.00
2023-03-18T14:16:14.995Z,0.10
2023-03-18T14:21:23.828Z,0.20
2023-03-18T14:26:21.870Z,0.32
2023-03-18T14:31:40.157Z,0.20
2023-03-18T14:36:53.404Z,0.30
2023-03-18T14:41:48.762Z,0.40
2023-03-18T14:46:43.433Z,0.50
2023-03-18T14:51:35.566Z,0.17
2023-03-18T14:56:36.117Z,0.00
2023-03-18T15:01:40.146Z,0.00
2023-03-18T15:06:32.595Z,0.00
2023-03-18T15:11:24.781Z,0.10
2023-03-18T15:16:19.943Z,0.00
2023-03-18T15:21:17.804Z,0.10
2023-03-18T15:31:33.062Z,0.00
2023-03-18T15:36:25.268Z,0.05
2023-03-18T15:41:21.625Z,0.00
2023-03-18T15:46:19.034Z,0.00
2023-03-18T15:51:48.181Z,0.10
2023-03-18T15:56:47.724Z,0.30
2023-03-18T16:01:40.335Z,0.10
2023-03-18T16:06:34.552Z,0.10
2023-03-18T16:11:26.350Z,0.30
2023-03-18T16:16:25.212Z,0.20
2023-03-18T16:21:17.192Z,0.30
2023-03-18T16:26:16.448Z,0.20
2023-03-18T16:31:08.400Z,0.38
2023-03-18T16:36:01.756Z,0.40
2023-03-18T16:40:54.906Z,0.40
2023-03-18T16:45:47.593Z,0.20
2023-03-18T16:50:41.439Z,0.70
2023-03-18T16:55:34.560Z,0.50
2023-03-18T17:00:31.846Z,0.50
2023-03-18T17:05:24.190Z,0.80
2023-03-18T17:10:19.020Z,0.95
2023-03-18T17:15:12.687Z,0.82
2023-03-18T17:20:15.539Z,0.80
2023-03-18T17:25:07.509Z,0.75
2023-03-18T17:29:59.288Z,0.90
2023-03-18T17:34:52.403Z,0.47
2023-03-18T17:39:44.841Z,0.73
2023-03-18T17:44:36.811Z,1.13
2023-03-18T17:49:28.585Z,1.02
2023-03-18T17:54:25.431Z,1.20
2023-03-18T17:59:19.554Z,0.82
2023-03-18T18:04:16.736Z,1.00
2023-03-18T18:09:13.317Z,0.67
2023-03-18T18:14:18.511Z,0.88
2023-03-18T18:19:14.541Z,0.63
2023-03-18T18:24:24.059Z,0.43
2023-03-18T18:29:20.568Z,0.52
2023-03-18T18:34:12.433Z,1.27
2023-03-18T18:39:05.324Z,0.95
2023-03-18T18:43:57.177Z,1.42
2023-03-18T18:48:49.313Z,1.23
2023-03-18T18:53:43.354Z,1.25
2023-03-18T18:58:36.613Z,0.98
2023-03-18T19:03:31.941Z,1.95
2023-03-18T19:08:25.071Z,1.92
2023-03-18T19:13:17.021Z,0.25
2023-03-18T19:18:21.377Z,0.20
2023-03-18T19:23:23.453Z,0.25
2023-03-18T19:28:20.970Z,0.20
2023-03-18T19:33:22.197Z,0.10
2023-03-18T19:38:17.871Z,0.00
2023-03-18T19:43:21.573Z,0.10
2023-03-18T19:48:19.885Z,0.10
2023-03-18T19:53:16.093Z,0.55
2023-03-18T19:58:24.181Z,0.32
2023-03-18T20:03:18.131Z,0.52
2023-03-18T20:08:10.131Z,1.15
2023-03-18T20:13:01.930Z,0.88
2023-03-18T20:17:54.504Z,0.80
2023-03-18T20:22:51.924Z,0.80
2023-03-18T20:27:43.613Z,1.10
2023-03-18T20:32:35.266Z,0.40
2023-03-18T20:37:34.398Z,0.40
2023-03-18T20:42:26.248Z,0.20
2023-03-18T20:47:17.956Z,0.50
2023-03-18T20:52:23.366Z,0.20
2023-03-18T20:57:15.293Z,0.30
2023-03-18T21:02:29.995Z,0.20
2023-03-18T21:07:22.152Z,0.20
2023-03-18T21:12:18.630Z,0.20
2023-03-18T21:17:22.427Z,0.98
2023-03-18T21:22:21.516Z,0.40
2023-03-18T21:27:31.502Z,0.38
2023-03-18T21:32:27.371Z,0.30
2023-03-18T21:37:22.283Z,0.30
2023-03-18T21:42:23.126Z,0.30
2023-03-18T21:47:17.884Z,0.35
2023-03-18T21:52:29.288Z,0.30
2023-03-18T21:57:22.524Z,0.30
2023-03-18T22:02:31.592Z,0.38
2023-03-18T22:07:23.887Z,0.60
2023-03-18T22:12:24.539Z,0.32
2023-03-18T22:17:37.217Z,0.30
2023-03-18T22:22:39.261Z,0.30
2023-03-18T22:27:31.603Z,0.40
2023-03-18T22:32:26.225Z,0.50
2023-03-18T22:37:23.076Z,0.45
2023-03-18T22:42:18.167Z,0.20
2023-03-18T22:47:15.216Z,0.30
2023-03-18T22:52:11.895Z,0.50
2023-03-18T22:57:03.692Z,0.40
2023-03-18T23:01:55.299Z,0.50
2023-03-18T23:06:46.984Z,0.63
2023-03-18T23:11:38.891Z,0.68
2023-03-18T23:16:30.535Z,1.38
2023-03-18T23:21:24.756Z,0.50
2023-03-18T23:26:16.789Z,0.60
2023-03-18T23:31:09.443Z,0.60
2023-03-18T23:36:01.492Z,0.40
2023-03-18T23:40:53.156Z,0.40
2023-03-18T23:45:45.025Z,0.40
2023-03-18T23:50:36.714Z,0.35
2023-03-18T23:55:34.939Z,0.30
